Terminal Aerodrome Forecast
Issued by NWS Upton, NY

Home | Current Version | Previous Version | Text Only | Print | Product List | Glossary On
Versions: 1 2 3 4 5 6 7 8 9 10 11 12 13 14 15 16 17 18 19 20 21 22 23 24 25 26 27 28 29 30 31
000
FTUS41 KOKX 071814 AAA
TAFJFK
TAF AMD
KJFK 071814Z 0718/0824 18014KT P6SM VCSH SCT006 SCT025 BKN035
      TEMPO 0718/0719 5SM -SHRA BR BKN006
     FM072000 18017KT P6SM FEW008 BKN035
      TEMPO 0721/0722 3SM -SHRA BR
     FM080200 21010KT P6SM SCT035 BKN250
     FM081400 25010KT P6SM SCT040 OVC100
     FM081800 23010KT P6SM BKN060=

USA.gov is the U.S. government's official web portal to all federal, state and local government web resources and services.